createdAt,value
2019-05-06T00:00:59.718Z,78.74
2019-05-06T00:06:03.825Z,77.43
2019-05-06T00:11:05.782Z,78.59
2019-05-06T00:16:07.659Z,78.74
2019-05-06T00:21:09.646Z,76.93
2019-05-06T00:26:13.632Z,79.06
2019-05-06T00:31:20.261Z,79.66
2019-05-06T00:36:23.709Z,77.46
2019-05-06T00:41:27.773Z,78.95
2019-05-06T00:46:29.662Z,80.10
2019-05-06T00:51:33.665Z,80.06
2019-05-06T00:56:35.311Z,80.28
2019-05-06T01:01:37.145Z,81.52
2019-05-06T01:06:39.034Z,80.23
2019-05-06T01:11:41.223Z,80.70
2019-05-06T01:16:43.972Z,80.14
2019-05-06T01:21:45.875Z,80.28
2019-05-06T01:26:47.783Z,80.65
2019-05-06T01:31:49.640Z,80.26
2019-05-06T01:36:51.523Z,79.03
2019-05-06T01:42:07.299Z,80.26
2019-05-06T01:47:09.137Z,78.90
2019-05-06T01:52:10.982Z,79.94
2019-05-06T01:57:13.734Z,79.22
2019-05-06T02:02:15.887Z,79.74
2019-05-06T02:07:17.763Z,80.31
2019-05-06T02:12:19.662Z,79.94
2019-05-06T02:17:23.768Z,80.00
2019-05-06T02:22:45.398Z,78.64
2019-05-06T02:27:47.201Z,79.74
2019-05-06T02:32:50.911Z,80.21
2019-05-06T02:37:55.014Z,79.47
2019-05-06T02:42:56.665Z,79.49
2019-05-06T02:48:05.978Z,80.32
2019-05-06T02:53:07.804Z,80.11
2019-05-06T02:58:09.626Z,80.19
2019-05-06T03:03:14.039Z,79.24
2019-05-06T03:08:15.302Z,78.78
2019-05-06T03:13:17.164Z,80.65
2019-05-06T03:18:19.008Z,81.12
2019-05-06T03:23:28.492Z,81.96
2019-05-06T03:28:33.111Z,80.37
2019-05-06T03:33:50.712Z,81.20
2019-05-06T03:38:37.969Z,81.95
2019-05-06T03:43:39.875Z,81.89
2019-05-06T03:48:44.398Z,82.09
2019-05-06T03:53:47.019Z,81.05
2019-05-06T03:58:53.356Z,81.77
2019-05-06T04:03:57.206Z,82.44
2019-05-06T04:08:58.427Z,83.15
2019-05-06T04:14:02.795Z,84.01
2019-05-06T04:19:24.110Z,83.81
2019-05-06T04:24:46.142Z,84.03
2019-05-06T04:29:48.053Z,82.61
2019-05-06T04:34:53.227Z,82.72
2019-05-06T04:39:54.267Z,83.95
2019-05-06T04:44:56.675Z,81.83
2019-05-06T04:49:58.657Z,82.13
2019-05-06T04:55:03.453Z,81.56
2019-05-06T05:00:05.308Z,82.72
2019-05-06T05:05:07.470Z,84.13
2019-05-06T05:10:20.180Z,80.53
2019-05-06T05:15:36.118Z,82.57
2019-05-06T05:20:44.127Z,83.86
2019-05-06T05:25:43.179Z,82.11
2019-05-06T05:30:45.265Z,82.94
2019-05-06T05:35:47.210Z,78.74
2019-05-06T05:40:49.140Z,77.07
2019-05-06T05:45:52.352Z,77.00
2019-05-06T05:50:55.317Z,79.11
2019-05-06T05:55:57.133Z,80.11
2019-05-06T06:00:59.270Z,80.58
2019-05-06T06:06:03.063Z,81.85
2019-05-06T06:11:09.898Z,81.75
2019-05-06T06:16:13.589Z,78.63
2019-05-06T06:21:22.139Z,78.48
2019-05-06T06:26:22.655Z,79.01
2019-05-06T06:31:26.619Z,75.27
2019-05-06T06:36:36.449Z,79.74
2019-05-06T06:41:38.609Z,75.56
2019-05-06T06:46:42.803Z,75.38
2019-05-06T06:51:44.575Z,76.72
2019-05-06T06:57:06.173Z,75.73
2019-05-06T07:02:05.913Z,77.41
2019-05-06T07:07:08.073Z,78.27
2019-05-06T07:12:13.036Z,77.23
2019-05-06T07:17:13.865Z,80.12
2019-05-06T07:22:15.893Z,74.81
2019-05-06T07:27:19.737Z,70.00
2019-05-06T07:32:23.175Z,72.41
2019-05-06T07:37:25.293Z,67.92
2019-05-06T07:42:28.956Z,65.49
2019-05-06T07:47:44.782Z,66.21
2019-05-06T07:53:05.045Z,63.26
2019-05-06T07:58:07.129Z,62.05
2019-05-06T08:03:09.140Z,63.05
2019-05-06T08:08:12.947Z,65.07
2019-05-06T08:13:15.014Z,64.81
2019-05-06T08:18:19.050Z,64.79
2019-05-06T08:23:25.724Z,57.59
2019-05-06T15:43:12.828Z,57.82
2019-05-06T15:48:57.537Z,58.20
2019-05-06T15:54:02.615Z,57.90
2019-05-06T15:59:04.976Z,57.87
2019-05-06T16:04:06.885Z,58.78
2019-05-06T16:09:08.769Z,62.07
2019-05-06T16:14:12.690Z,63.33
2019-05-06T16:19:15.957Z,66.62
2019-05-06T16:24:23.020Z,67.00
2019-05-06T16:29:36.035Z,66.76
2019-05-06T16:34:38.227Z,67.12
2019-05-06T16:39:40.690Z,70.11
2019-05-06T16:44:45.142Z,68.22
2019-05-06T16:49:46.633Z,74.13
2019-05-06T16:54:48.498Z,73.57
2019-05-06T16:59:52.252Z,72.39
2019-05-06T17:05:05.136Z,73.77
2019-05-06T17:10:07.398Z,74.31
2019-05-06T17:15:09.679Z,75.72
2019-05-06T17:20:12.331Z,75.76
2019-05-06T17:25:14.614Z,78.03
2019-05-06T17:30:33.157Z,80.22
2019-05-06T17:35:34.809Z,79.11
2019-05-06T17:40:36.777Z,79.12
2019-05-06T17:45:43.045Z,81.18
2019-05-06T17:50:46.724Z,81.18
2019-05-06T17:55:48.737Z,80.72
2019-05-06T18:00:52.216Z,82.91
2019-05-06T18:05:54.696Z,81.80
2019-05-06T18:10:58.744Z,80.03
2019-05-06T18:16:03.495Z,79.67
2019-05-06T18:21:05.330Z,79.30
2019-05-06T18:26:07.455Z,78.16
2019-05-06T18:31:09.320Z,78.14
2019-05-06T18:36:13.025Z,78.50
2019-05-06T18:41:16.654Z,78.36
2019-05-06T18:46:18.634Z,78.08
2019-05-06T18:51:22.348Z,75.76
2019-05-06T18:56:24.777Z,77.81
2019-05-06T19:01:28.785Z,78.70
2019-05-06T19:06:32.725Z,80.26
2019-05-06T19:11:34.790Z,76.43
2019-05-06T19:16:48.869Z,77.01
2019-05-06T19:21:42.751Z,78.77
2019-05-06T19:26:44.619Z,79.46
2019-05-06T19:31:48.597Z,77.29
2019-05-06T19:36:52.800Z,76.78
2019-05-06T19:41:55.661Z,77.38
2019-05-06T19:46:57.584Z,77.33
2019-05-06T19:52:03.144Z,75.41
2019-05-06T19:57:05.390Z,75.56
2019-05-06T20:02:07.373Z,76.11
2019-05-06T20:07:17.063Z,75.64
2019-05-06T20:12:23.718Z,76.47
2019-05-06T20:17:25.767Z,75.41
2019-05-06T20:22:27.736Z,74.39
2019-05-06T20:27:29.648Z,72.50
2019-05-06T20:32:32.275Z,75.27
2019-05-06T20:37:34.198Z,76.52
2019-05-06T20:42:36.119Z,74.86
2019-05-06T20:47:38.027Z,75.25
2019-05-06T20:52:42.355Z,73.55
2019-05-06T20:57:43.796Z,76.19
2019-05-06T21:02:45.730Z,76.67
2019-05-06T21:07:47.838Z,75.76
2019-05-06T21:12:49.662Z,79.33
2019-05-06T21:17:51.603Z,77.75
2019-05-06T21:22:53.449Z,76.85
2019-05-06T21:27:55.437Z,79.29
2019-05-06T21:32:57.322Z,76.67
2019-05-06T21:37:59.312Z,75.32
2019-05-06T21:43:02.058Z,74.46
2019-05-06T21:48:04.500Z,76.26
2019-05-06T21:53:06.451Z,74.61
2019-05-06T21:58:08.422Z,75.04
2019-05-06T22:03:13.363Z,73.40
2019-05-06T22:08:15.750Z,76.12
2019-05-06T22:13:17.679Z,76.48
2019-05-06T22:18:19.848Z,74.72
2019-05-06T22:23:22.184Z,77.09
2019-05-06T22:28:24.311Z,70.23
2019-05-06T22:33:26.141Z,75.13
2019-05-06T22:38:28.157Z,74.56
2019-05-06T22:43:30.096Z,73.56
2019-05-06T22:48:32.472Z,74.37
2019-05-06T22:53:35.573Z,72.66
2019-05-06T22:58:37.450Z,76.88
2019-05-06T23:03:39.312Z,73.34
2019-05-06T23:08:43.298Z,72.69
2019-05-06T23:13:48.321Z,73.39
2019-05-06T23:18:52.353Z,73.38
2019-05-06T23:23:54.763Z,73.17
2019-05-06T23:28:56.991Z,74.69
2019-05-06T23:33:59.071Z,71.81
2019-05-06T23:39:39.958Z,71.18
2019-05-06T23:45:19.088Z,74.53
2019-05-06T23:50:59.259Z,71.07
2019-05-06T23:56:38.744Z,71.51
